Latest Weather Observations for PORTABLE RFSNSW53

IDN60801

Issued at 3:22 pm EST Monday 23 September 2019 (issued every 10 minutes, with the page automatically refreshed every 10 minutes)

About weather observations | Map of weather stations | Latest weather observations for NSW | Other Formats
Station Details ID: 250096 Name: PORTABLE RFSNSW53 Lat: -34.44 Lon: 146.90 Height: 205.0 m
Data from the previous 72 hours. | See also: Recent months for locations in New South Wales
Date/Time
EST
Temp
°C
App
Temp
°C
Dew
Point
°C
Rel
Hum
%
Delta-T
°C
Wind Press
QNH
hPa
Press
MSL
hPa
Rain since
9am
mm
Dir  Spd
km/h
Gust
km/h
Spd
kts
Gust
kts
23/03:10pm 17.2 9.5 -0.1 31 7.5 SW 30 32 16 17 - - 0.0
23/03:00pm 16.7 8.9 -0.5 31 7.4 WSW 30 35 16 19 - - 0.0
23/02:50pm 17.6 10.1 -1.2 28 8.0 SW 28 33 15 18 - - 0.0
23/02:40pm 17.7 10.4 0.1 30 7.7 WSW 28 32 15 17 - - 0.0
23/02:30pm 17.1 9.7 -0.8 29 7.7 WSW 28 33 15 18 - - 0.0
23/02:20pm 17.6 9.8 -0.5 29 7.8 SW 30 41 16 22 - - 0.0
23/02:10pm 17.0 9.3 -0.2 31 7.4 SW 30 35 16 19 - - 0.0
23/02:00pm 17.2 9.7 -1.6 27 7.9 WSW 28 33 15 18 - - 0.0
23/01:50pm 16.9 8.9 0.4 32 7.2 SW 32 41 17 22 - - 0.0
23/01:40pm 17.4 10.9 0.3 31 7.5 WSW 24 30 13 16 - - 0.0
23/01:30pm 16.7 9.5 0.5 33 7.1 SW 28 32 15 17 - - 0.0
23/01:20pm 16.9 9.3 0.8 33 7.1 WSW 30 41 16 22 - - 0.0
23/01:00pm 17.0 9.8 0.6 33 7.2 WSW 28 33 15 18 - - 0.0
23/12:50pm 16.9 9.3 0.5 33 7.2 WSW 30 35 16 19 - - 0.0
23/12:40pm 16.6 9.4 1.0 35 6.9 WSW 28 32 15 17 - - 0.0
23/12:30pm 15.5 7.5 0.7 36 6.4 SW 32 39 17 21 - - 0.0
23/12:20pm 17.2 10.1 1.1 33 7.2 WSW 28 35 15 19 - - 0.0
23/12:10pm 16.2 9.0 0.4 34 6.9 WSW 28 33 15 18 - - 0.0
23/12:00pm 15.2 7.3 0.9 38 6.2 W 32 37 17 20 - - 0.0
23/11:50am 16.4 9.3 1.1 35 6.8 W 28 41 15 22 - - 0.0
23/11:40am 15.5 8.4 1.3 38 6.3 SW 28 33 15 18 - - 0.0
23/11:30am 16.4 10.1 1.4 36 6.7 WSW 24 33 13 18 - - 0.0
23/11:20am 15.4 8.0 1.7 39 6.1 WSW 30 37 16 20 - - 0.0
23/11:10am 15.4 8.8 2.1 40 6.0 WSW 26 30 14 16 - - 0.0
23/11:00am 14.8 7.8 1.8 41 5.8 WSW 28 30 15 16 - - 0.0
23/10:50am 14.9 7.9 1.9 41 5.8 WSW 28 33 15 18 - - 0.0
23/10:40am 15.6 7.7 1.0 37 6.4 WSW 32 37 17 20 - - 0.0
23/10:30am 14.8 6.9 1.1 39 6.0 WSW 32 35 17 19 - - 0.0
23/10:20am 15.7 8.1 2.8 42 5.9 WSW 32 35 17 19 - - 0.0
23/10:10am 14.7 7.9 3.0 45 5.3 W 28 33 15 18 - - 0.0
23/10:00am 14.9 8.2 3.9 47 5.1 WSW 28 35 15 19 - - 0.0
23/09:50am 14.5 7.9 4.0 49 4.9 WSW 28 33 15 18 - - 0.0
23/09:40am 14.2 7.6 4.1 50 4.7 WSW 28 33 15 18 - - 0.0
23/09:30am 13.8 6.8 4.1 52 4.5 WSW 30 32 16 17 - - 0.0
23/09:20am 14.1 7.9 4.4 52 4.5 WSW 26 30 14 16 - - 0.0
23/09:00am 13.9 7.2 3.9 51 4.6 WSW 28 32 15 17 - - 0.0
23/08:50am 13.8 7.5 4.0 51 4.5 WSW 26 30 14 16 - - 0.0
23/08:40am 13.7 7.4 4.0 52 4.5 WSW 26 32 14 17 - - 0.0
23/08:30am 13.5 7.9 3.7 51 4.5 W 22 30 12 16 - - 0.0
23/08:20am 13.0 7.8 2.5 49 4.7 W 19 20 10 11 - - 0.0
23/08:10am 12.5 7.2 2.1 49 4.5 W 19 22 10 12 - - 0.0
23/08:00am 12.0 7.1 2.1 50 4.3 W 17 19 9 10 - - 0.0
23/07:50am 11.6 6.6 1.5 50 4.3 WNW 17 19 9 10 - - 0.0
23/07:40am 10.8 6.2 1.5 52 3.9 WNW 15 19 8 10 - - 0.0
23/07:30am 10.7 6.0 1.1 51 4.0 WNW 15 17 8 9 - - 0.0
23/07:20am 10.4 5.8 1.3 53 3.8 WNW 15 17 8 9 - - 0.0
23/07:10am 10.2 5.6 1.3 54 3.7 WNW 15 17 8 9 - - 0.0
23/07:00am 10.0 5.3 1.2 54 3.7 WNW 15 17 8 9 - - 0.0
23/06:50am 9.7 5.0 1.1 55 3.6 WNW 15 17 8 9 - - 0.0
23/06:40am 8.5 4.5 0.7 58 3.2 WNW 11 15 6 8 - - 0.0
23/06:30am 7.3 4.2 1.6 67 2.3 NNW 7 9 4 5 - - 0.0
23/06:20am 7.0 4.0 1.1 66 2.4 NNW 6 7 3 4 - - 0.0
23/06:10am 7.0 4.1 1.3 67 2.3 NNW 6 7 3 4 - - 0.0
23/06:00am 7.4 4.3 1.2 65 2.5 N 7 9 4 5 - - 0.0
23/05:50am 7.5 4.3 0.9 63 2.7 NNW 7 9 4 5 - - 0.0
23/05:40am 7.7 4.7 0.5 60 2.9 N 6 7 3 4 - - 0.0
23/05:30am 7.9 4.8 0.4 59 3.0 N 6 6 3 3 - - 0.0
23/05:20am 7.6 4.3 0.3 60 2.9 N 7 7 4 4 - - 0.0
23/05:10am 7.7 4.7 0.9 62 2.8 NNE 6 7 3 4 - - 0.0
23/05:00am 7.6 4.3 0.4 60 2.9 NNE 7 7 4 4 - - 0.0
23/04:50am 7.3 4.3 0.8 63 2.6 NNE 6 7 3 4 - - 0.0
23/04:40am 7.1 4.9 1.3 66 2.4 NNE 2 4 1 2 - - 0.0
23/04:30am 7.0 4.9 1.9 70 2.1 WSW 2 4 1 2 - - 0.0
23/04:20am 7.3 4.8 1.7 67 2.3 NNW 4 7 2 4 - - 0.0
23/04:10am 7.6 4.7 1.4 65 2.5 N 6 7 3 4 - - 0.0
23/04:00am 7.8 4.9 1.3 63 2.7 N 6 6 3 3 - - 0.0
23/03:50am 8.2 5.3 1.3 62 2.8 N 6 6 3 3 - - 0.0
23/03:40am 8.5 5.6 1.4 61 2.9 N 6 6 3 3 - - 0.0
23/03:30am 8.5 5.5 0.8 58 3.1 N 6 6 3 3 - - 0.0
23/03:20am 8.4 5.3 1.2 60 3.0 N 7 7 4 4 - - 0.0
23/03:10am 8.4 5.2 0.9 59 3.1 NNE 7 9 4 5 - - 0.0
23/03:00am 8.2 5.0 0.9 60 3.0 NNE 7 7 4 4 - - 0.0
23/02:50am 8.1 5.2 1.4 62 2.8 NNE 6 6 3 3 - - 0.0
23/02:40am 7.9 5.1 2.0 66 2.5 NNE 6 6 3 3 - - 0.0
23/02:30am 8.0 5.5 1.5 63 2.7 NNE 4 6 2 3 - - 0.0
23/02:20am 7.8 5.7 1.8 66 2.5 NNE 2 2 1 1 - - 0.0
23/02:10am 7.7 5.6 1.7 66 2.5 NNE 2 2 1 1 - - 0.0
23/02:00am 7.6 5.5 1.7 66 2.4 SSW 2 2 1 1 - - 0.0
23/01:50am 7.5 5.5 2.3 69 2.2 W 2 2 1 1 - - 0.0
23/01:40am 7.3 5.3 2.1 69 2.2 WNW 2 4 1 2 - - 0.0
23/01:30am 7.3 4.9 2.4 71 2.1 WNW 4 6 2 3 - - 0.0
23/01:20am 7.3 5.3 2.2 70 2.1 WSW 2 4 1 2 - - 0.0
23/01:00am 7.8 5.7 1.5 64 2.6 N 2 4 1 2 - - 0.0
23/12:50am 7.9 5.0 1.4 63 2.7 NNE 6 7 3 4 - - 0.0
23/12:40am 7.7 4.8 1.2 63 2.7 NNE 6 7 3 4 - - 0.0
23/12:30am 7.4 4.8 1.1 64 2.6 NE 4 6 2 3 - - 0.0
23/12:20am 7.2 4.6 0.9 64 2.5 NNE 4 4 2 2 - - 0.0
23/12:10am 7.1 4.5 1.1 65 2.4 ENE 4 4 2 2 - - 0.0
23/12:00am 6.6 3.9 0.6 65 2.4 NE 4 4 2 2 - - 0.0
 
Date/Time
EST
Temp
°C
App
Temp
°C
Dew
Point
°C
Rel
Hum
%
Delta-T
°C
Wind Press
QNH
hPa
Press
MSL
hPa
Rain since
9am
mm
Dir  Spd
km/h
Gust
km/h
Spd
kts
Gust
kts
22/11:50pm 6.0 3.3 0.5 68 2.2 N 4 4 2 2 - - 0.0
22/11:40pm 5.7 3.0 0.6 70 2.0 N 4 4 2 2 - - 0.0
22/11:30pm 6.0 3.8 0.8 69 2.1 N 2 4 1 2 - - 0.0
22/11:20pm 7.0 4.2 -0.1 60 2.8 ENE 4 6 2 3 - - 0.0
22/11:10pm 7.0 4.4 0.7 64 2.5 ENE 4 4 2 2 - - 0.0
22/11:00pm 6.8 4.1 0.6 64 2.5 NE 4 4 2 2 - - 0.0
22/10:50pm 7.0 4.4 1.1 66 2.4 NE 4 4 2 2 - - 0.0
22/10:40pm 6.7 4.0 0.2 63 2.6 NNE 4 4 2 2 - - 0.0
22/10:30pm 7.3 4.8 -0.7 57 3.1 NNE 2 4 1 2 - - 0.0
22/10:20pm 7.0 4.7 0.2 62 2.7 WNW 2 2 1 1 - - 0.0
22/10:10pm 6.9 4.5 -0.3 60 2.8 SW 2 2 1 1 - - 0.0
22/10:00pm 7.5 5.2 0.2 60 2.9 W 2 2 1 1 - - 0.0
22/09:50pm 8.2 5.9 0.3 57 3.2 SE 2 4 1 2 - - 0.0
22/09:40pm 8.8 6.4 -0.4 52 3.7 ENE 2 4 1 2 - - 0.0
22/09:30pm 8.8 6.3 1.4 60 3.1 NE 4 4 2 2 - - 0.0
22/09:20pm 9.1 6.3 -0.3 52 3.8 NNE 4 4 2 2 - - 0.0
22/09:10pm 9.3 6.6 0.1 52 3.7 NNE 4 4 2 2 - - 0.0
22/09:00pm 9.6 7.4 1.1 55 3.5 N 2 2 1 1 - - 0.0
22/08:50pm 9.5 7.1 -0.2 51 3.9 NNW 2 4 1 2 - - 0.0
22/08:40pm 9.8 7.4 -0.1 50 4.0 N 2 4 1 2 - - 0.0
22/08:30pm 9.7 7.4 0.1 51 3.9 NNW 2 2 1 1 - - 0.0
22/08:20pm 9.7 7.5 1.1 55 3.6 NW 2 2 1 1 - - 0.0
22/08:10pm 9.5 7.1 -0.4 50 4.0 NE 2 2 1 1 - - 0.0
22/08:00pm 9.8 7.6 0.9 54 3.7 WSW 2 4 1 2 - - 0.0
22/07:50pm 10.0 7.7 0.3 51 4.0 SW 2 4 1 2 - - 0.0
22/07:40pm 10.0 6.8 -0.6 47 4.3 SW 6 6 3 3 - - 0.0
22/07:30pm 10.2 7.0 -0.5 47 4.3 WSW 6 9 3 5 - - 0.0
22/07:20pm 10.4 6.6 -0.6 46 4.4 W 9 9 5 5 - - 0.0
22/07:10pm 10.5 7.1 -0.3 47 4.4 W 7 9 4 5 - - 0.0
22/07:00pm 11.0 7.2 -0.5 45 4.7 W 9 9 5 5 - - 0.0
22/06:50pm 11.2 7.8 -0.5 44 4.8 W 7 9 4 5 - - 0.0
22/06:40pm 11.6 8.3 0.1 45 4.8 W 7 9 4 5 - - 0.0
22/06:30pm 12.2 8.5 0.1 43 5.0 W 9 9 5 5 - - 0.0
22/06:20pm 13.0 9.3 -0.2 40 5.5 W 9 11 5 6 - - 0.0
22/06:10pm 14.0 10.8 0.5 39 5.8 WNW 7 9 4 5 - - 0.0
22/06:00pm 15.3 11.2 0.1 35 6.5 WNW 11 13 6 7 - - 0.0
22/05:50pm 16.5 11.6 -0.5 31 7.3 WNW 15 19 8 10 - - 0.0
22/05:40pm 17.0 11.3 -0.7 30 7.6 WNW 19 20 10 11 - - 0.0
22/05:30pm 17.6 12.3 -0.9 28 7.9 W 17 19 9 10 - - 0.0
22/05:20pm 18.0 12.7 -0.9 27 8.1 W 17 17 9 9 - - 0.0
22/05:10pm 18.2 12.8 -1.2 27 8.3 WNW 17 19 9 10 - - 0.0
22/05:00pm 17.7 11.8 -1.0 28 8.0 WNW 20 22 11 12 - - 0.0
22/04:50pm 17.8 12.1 -1.1 27 8.1 WNW 19 24 10 13 - - 0.0
22/04:40pm 18.3 13.0 -0.9 27 8.3 W 17 20 9 11 - - 0.0
22/04:30pm 17.6 12.2 -1.1 28 8.0 W 17 19 9 10 - - 0.0
22/04:20pm 17.5 12.6 -0.8 29 7.9 W 15 20 8 11 - - 0.0
22/04:10pm 18.1 13.2 -0.6 28 8.1 W 15 20 8 11 - - 0.0
22/04:00pm 18.5 13.2 -0.7 27 8.3 WNW 17 22 9 12 - - 0.0
22/03:50pm 19.4 13.7 -0.9 25 8.9 WNW 19 22 10 12 - - 0.0
22/03:40pm 19.9 14.9 -1.4 23 9.2 WNW 15 22 8 12 - - 0.0
22/03:30pm 19.4 14.0 -1.0 25 8.9 WNW 17 20 9 11 - - 0.0
22/03:20pm 18.9 13.5 -1.1 26 8.6 WNW 17 19 9 10 - - 0.0
22/03:10pm 18.5 14.0 -0.6 27 8.3 WNW 13 19 7 10 - - 0.0
22/03:00pm 18.4 12.7 -0.8 27 8.3 W 19 22 10 12 - - 0.0
22/02:50pm 18.6 13.2 -1.0 26 8.5 W 17 24 9 13 - - 0.0
22/02:40pm 18.8 13.8 -1.3 25 8.6 W 15 19 8 10 - - 0.0
22/02:30pm 18.6 12.8 -1.6 25 8.6 W 19 24 10 13 - - 0.0
22/02:20pm 18.9 14.2 -1.5 25 8.8 W 13 22 7 12 - - 0.0
22/02:10pm 19.2 14.2 -1.3 25 8.9 W 15 19 8 10 - - 0.0
22/02:00pm 19.5 14.9 -1.0 25 8.9 WSW 13 20 7 11 - - 0.0
22/01:50pm 19.9 14.5 -1.4 23 9.2 W 17 24 9 13 - - 0.0
22/01:40pm 19.6 14.2 -1.6 24 9.1 W 17 22 9 12 - - 0.0
22/01:30pm 19.6 15.3 -1.4 24 9.1 W 11 17 6 9 - - 0.0
22/01:20pm 19.8 14.4 -1.5 23 9.2 W 17 20 9 11 - - 0.0
22/01:10pm 19.7 15.3 -2.1 23 9.3 WSW 11 17 6 9 - - 0.0
22/01:00pm 19.7 15.1 -1.2 24 9.1 W 13 19 7 10 - - 0.0
22/12:50pm 18.7 13.8 -0.8 26 8.5 W 15 20 8 11 - - 0.0
22/12:40pm 19.3 14.7 -0.8 26 8.8 WNW 13 22 7 12 - - 0.0
22/12:30pm 19.0 14.5 -0.2 27 8.5 WSW 13 19 7 10 - - 0.0
22/12:20pm 18.8 15.1 -0.1 28 8.3 WSW 9 22 5 12 - - 0.0
22/12:10pm 18.5 13.2 -0.3 28 8.2 WSW 17 20 9 11 - - 0.0
22/12:00pm 18.4 13.4 -0.9 27 8.3 W 15 17 8 9 - - 0.0
22/11:50am 18.2 13.8 0.6 30 7.8 W 13 17 7 9 - - 0.0
22/11:40am 18.0 13.6 0.2 30 7.8 WSW 13 20 7 11 - - 0.0
22/11:30am 18.2 14.9 0.0 29 8.0 WSW 7 17 4 9 - - 0.0
22/11:20am 17.5 13.2 0.8 32 7.4 WSW 13 19 7 10 - - 0.0
22/11:10am 17.6 14.0 0.6 31 7.5 WSW 9 17 5 9 - - 0.0
22/11:00am 17.3 12.9 0.6 32 7.4 WSW 13 20 7 11 - - 0.0
22/10:50am 17.1 13.3 1.5 35 7.0 WSW 11 17 6 9 - - 0.0
22/10:40am 16.5 13.0 1.1 35 6.8 SW 9 15 5 8 - - 0.0
22/10:30am 16.2 12.0 1.8 38 6.5 SW 13 17 7 9 - - 0.0
22/10:20am 15.7 11.5 1.9 39 6.2 SSW 13 17 7 9 - - 0.0
22/10:10am 15.8 12.2 2.7 41 6.0 SW 11 17 6 9 - - 0.0
22/10:00am 15.8 12.7 3.6 44 5.7 SSW 9 19 5 10 - - 0.0
22/09:50am 15.1 11.3 4.0 47 5.2 SSW 13 17 7 9 - - 0.0
22/09:40am 14.9 11.6 4.3 49 5.0 SSW 11 15 6 8 - - 0.0
22/09:30am 14.5 11.3 5.2 53 4.4 SSW 11 15 6 8 - - 0.0
22/09:20am 14.5 11.6 4.7 52 4.6 S 9 13 5 7 - - 0.0
22/09:10am 14.1 10.9 4.9 54 4.3 SW 11 15 6 8 - - 0.0
22/09:00am 14.0 11.3 5.6 57 4.0 S 9 13 5 7 - - 0.0
22/08:50am 13.5 10.9 5.9 60 3.6 SSW 9 15 5 8 - - 0.0
22/08:40am 13.2 9.8 6.1 62 3.4 SSW 13 15 7 8 - - 0.0
22/08:30am 12.9 10.0 6.3 64 3.2 SSW 11 13 6 7 - - 0.0
22/08:20am 12.4 9.4 6.0 65 3.0 SSW 11 11 6 6 - - 0.0
22/08:10am 12.0 9.0 6.2 67 2.8 SSW 11 15 6 8 - - 0.0
22/08:00am 11.8 8.5 6.2 68 2.7 SW 13 15 7 8 - - 0.0
22/07:50am 11.6 8.7 6.4 70 2.5 SW 11 15 6 8 - - 0.0
22/07:40am 11.4 8.5 6.3 71 2.4 SW 11 13 6 7 - - 0.0
22/07:30am 10.9 8.3 6.2 73 2.2 WSW 9 13 5 7 - - 0.0
22/07:20am 10.5 9.2 5.9 73 2.2 WSW 2 4 1 2 - - 0.0
22/07:10am 9.7 8.2 5.0 72 2.1 SW 2 2 1 1 - - 0.0
22/07:00am 8.7 7.1 4.5 75 1.9 WSW 2 2 1 1 - - 0.0
22/06:50am 7.5 5.8 4.1 79 1.5 NE 2 2 1 1 - - 0.0
22/06:40am 6.3 4.8 3.1 80 1.4 CALM 0 2 0 1 - - 0.0
22/06:30am 5.2 3.2 2.5 83 1.1 NNE 2 2 1 1 - - 0.0
22/06:20am 3.9 1.9 2.1 88 0.7 NNE 2 4 1 2 - - 0.0
22/06:10am 4.0 1.9 2.0 87 0.8 W 2 2 1 1 - - 0.0
22/06:00am 4.5 2.4 2.0 84 1.0 NW 2 2 1 1 - - 0.0
22/05:50am 4.8 2.8 2.3 84 1.0 NNE 2 2 1 1 - - 0.0
22/05:40am 5.2 3.2 2.5 83 1.1 NNE 2 2 1 1 - - 0.0
22/05:30am 5.3 3.7 2.3 81 1.2 CALM 0 2 0 1 - - 0.0
22/05:20am 5.6 3.7 3.0 83 1.1 NNW 2 2 1 1 - - 0.0
22/05:10am 5.8 3.9 2.6 80 1.3 NNW 2 4 1 2 - - 0.0
22/05:00am 6.3 4.0 2.8 78 1.5 W 4 4 2 2 - - 0.0
22/04:50am 6.5 4.6 2.9 78 1.5 WNW 2 2 1 1 - - 0.0
22/04:40am 6.5 4.7 3.2 79 1.4 NNW 2 2 1 1 - - 0.0
22/04:30am 6.3 4.4 2.9 79 1.4 NW 2 4 1 2 - - 0.0
22/04:20am 6.6 4.3 2.8 77 1.6 N 4 4 2 2 - - 0.0
22/04:10am 6.5 4.9 2.6 76 1.6 CALM 0 2 0 1 - - 0.0
22/04:00am 6.4 4.9 3.1 79 1.4 CALM 0 2 0 1 - - 0.0
22/03:50am 7.0 5.2 3.3 77 1.6 ESE 2 2 1 1 - - 0.0
22/03:40am 8.0 5.8 3.1 71 2.1 S 4 4 2 2 - - 0.0
22/03:30am 8.2 5.9 2.7 68 2.3 S 4 6 2 3 - - 0.0
22/03:20am 7.9 5.5 2.4 68 2.3 S 4 6 2 3 - - 0.0
22/03:10am 7.1 4.7 2.2 71 2.0 SSE 4 4 2 2 - - 0.0
22/03:00am 6.3 4.3 2.2 75 1.7 ENE 2 4 1 2 - - 0.0
22/02:50am 6.2 4.2 2.4 76 1.6 NNE 2 4 1 2 - - 0.0
22/02:40am 6.0 4.1 2.7 79 1.4 ESE 2 2 1 1 - - 0.0
22/02:30am 6.7 4.0 2.7 75 1.7 SW 6 7 3 4 - - 0.0
22/02:20am 6.9 4.0 2.4 73 1.9 SSW 7 9 4 5 - - 0.0
22/02:10am 6.8 4.0 3.0 77 1.6 SW 7 7 4 4 - - 0.0
22/02:00am 6.7 4.4 2.9 77 1.6 SSW 4 6 2 3 - - 0.0
22/01:50am 6.7 4.1 3.4 79 1.4 SSW 6 7 3 4 - - 0.0
22/01:40am 7.1 4.4 3.6 78 1.5 SSW 7 7 4 4 - - 0.0
22/01:30am 7.7 5.9 3.6 75 1.8 SSE 2 6 1 3 - - 0.0
22/01:20am 8.0 6.2 3.4 73 2.0 NNE 2 2 1 1 - - 0.0
22/01:10am 7.8 5.6 3.5 74 1.9 NNE 4 4 2 2 - - 0.0
22/01:00am 8.0 5.9 3.7 74 1.9 NNE 4 4 2 2 - - 0.0
22/12:50am 8.1 6.0 4.0 75 1.8 NNW 4 4 2 2 - - 0.0
22/12:40am 8.5 6.8 3.8 72 2.1 NNW 2 4 1 2 - - 0.0
22/12:30am 8.8 7.2 4.3 73 2.0 ENE 2 2 1 1 - - 0.0
22/12:20am 9.5 7.4 4.1 69 2.4 SSE 4 4 2 2 - - 0.0
22/12:10am 9.2 7.2 4.2 71 2.2 S 4 6 2 3 - - 0.0
22/12:00am 9.2 6.6 4.3 71 2.2 SSW 7 7 4 4 - - 0.0
 
Date/Time
EST
Temp
°C
App
Temp
°C
Dew
Point
°C
Rel
Hum
%
Delta-T
°C
Wind Press
QNH
hPa
Press
MSL
hPa
Rain since
9am
mm
Dir  Spd
km/h
Gust
km/h
Spd
kts
Gust
kts
21/11:50pm 9.5 7.1 4.3 70 2.3 SSW 6 7 3 4 - - 0.0
21/11:40pm 9.7 7.1 4.1 68 2.5 S 7 7 4 4 - - 0.0
21/11:30pm 10.0 7.4 4.1 67 2.6 S 7 7 4 4 - - 0.0
21/11:20pm 9.9 7.4 4.0 67 2.6 S 6 7 3 4 - - 0.0
21/11:10pm 9.9 7.5 4.2 67 2.6 S 6 7 3 4 - - 0.0
21/11:00pm 9.8 7.4 4.3 68 2.5 S 6 6 3 3 - - 0.0
21/10:50pm 9.9 7.5 4.3 68 2.5 S 6 7 3 4 - - 0.0
21/10:40pm 10.1 7.7 4.5 68 2.5 SSW 6 7 3 4 - - 0.0
21/10:30pm 10.5 7.9 4.4 66 2.8 SSW 7 7 4 4 - - 0.0
21/10:20pm 11.1 8.1 4.1 62 3.2 SSW 9 9 5 5 - - 0.0
21/10:10pm 11.5 8.3 3.3 57 3.6 SSW 9 11 5 6 - - 0.0
21/10:00pm 11.3 8.6 3.8 60 3.4 SW 7 9 4 5 - - 0.0
21/09:50pm 11.7 8.2 3.5 57 3.7 SW 11 13 6 7 - - 0.0
21/09:40pm 11.9 8.4 3.4 56 3.8 SW 11 11 6 6 - - 0.0
21/09:30pm 11.5 8.0 3.6 58 3.5 SW 11 13 6 7 - - 0.0
21/09:20pm 12.1 8.7 3.9 57 3.7 WSW 11 11 6 6 - - 0.0
21/09:00pm 12.9 9.4 3.4 52 4.3 WSW 11 11 6 6 - - 0.0
21/08:50pm 13.3 9.9 4.0 53 4.3 WSW 11 11 6 6 - - 0.0
21/08:40pm 13.9 10.5 3.9 51 4.6 WSW 11 13 6 7 - - 0.0
21/08:30pm 14.6 11.2 3.9 48 5.0 WSW 11 11 6 6 - - 0.0
21/08:20pm 15.4 12.4 3.9 46 5.4 WSW 9 11 5 6 - - 0.0
21/08:10pm 16.0 12.6 4.0 44 5.6 WSW 11 13 6 7 - - 0.0
21/08:00pm 16.0 12.2 4.1 45 5.6 WSW 13 15 7 8 - - 0.0
21/07:50pm 15.9 12.6 4.8 47 5.3 WSW 11 13 6 7 - - 0.0
21/07:40pm 16.4 12.4 4.8 46 5.5 WSW 15 15 8 8 - - 0.0
21/07:30pm 16.7 12.3 4.8 45 5.7 WSW 17 17 9 9 - - 0.0
21/07:20pm 16.8 12.4 4.9 45 5.7 WSW 17 20 9 11 - - 0.0
21/07:10pm 16.9 12.9 5.1 45 5.7 WSW 15 19 8 10 - - 0.0
21/07:00pm 17.3 13.4 5.5 45 5.8 WSW 15 20 8 11 - - 0.0
21/06:50pm 17.9 13.6 5.3 43 6.2 W 17 20 9 11 - - 0.0
21/06:40pm 18.0 13.8 5.6 44 6.1 W 17 20 9 11 - - 0.0
21/06:30pm 18.5 14.3 5.9 43 6.3 WSW 17 19 9 10 - - 0.0
21/06:20pm 18.8 14.0 5.5 41 6.6 W 20 22 11 12 - - 0.0
21/06:10pm 19.0 13.9 5.8 42 6.6 W 22 30 12 16 - - 0.0
21/06:00pm 19.3 13.8 5.9 41 6.7 WSW 24 26 13 14 - - 0.0
21/05:50pm 19.4 14.0 6.2 42 6.6 W 24 26 13 14 - - 0.0
21/05:40pm 19.6 14.2 6.5 42 6.6 W 24 32 13 17 - - 0.0
21/05:30pm 19.6 14.0 7.0 44 6.4 W 26 30 14 16 - - 0.0
21/05:20pm 19.8 14.3 7.6 45 6.3 W 26 30 14 16 - - 0.0
21/05:10pm 19.9 14.9 7.9 46 6.2 W 24 28 13 15 - - 0.0
21/05:00pm 20.0 14.6 7.9 45 6.3 W 26 30 14 16 - - 0.0
21/04:50pm 20.3 14.9 8.2 45 6.4 W 26 33 14 18 - - 0.0
21/04:40pm 20.7 15.8 8.3 45 6.5 W 24 28 13 15 - - 0.0
21/04:30pm 21.3 16.8 8.4 43 6.8 W 22 26 12 14 - - 0.0
21/04:20pm 21.3 16.0 8.3 43 6.9 W 26 30 14 16 - - 0.0
21/04:10pm 21.4 16.5 8.5 43 6.9 W 24 30 13 16 - - 0.0
21/04:00pm 21.6 16.2 8.2 42 7.1 W 26 32 14 17 - - 0.0
21/03:50pm 21.3 14.6 8.0 42 7.0 W 33 37 18 20 - - 0.0
21/03:40pm 21.7 15.2 8.0 41 7.2 W 32 39 17 21 - - 0.0
21/03:30pm 21.9 15.4 8.0 40 7.3 W 32 39 17 21 - - 0.0
21/03:20pm 22.2 15.6 8.4 41 7.4 W 33 41 18 22 - - 0.0
21/03:10pm 23.6 16.9 8.1 37 8.3 W 33 37 18 20 - - 0.0
21/03:00pm 24.5 17.9 7.8 34 8.9 W 32 39 17 21 - - 0.0
21/02:50pm 24.4 17.8 7.9 35 8.8 W 32 35 17 19 - - 0.0
21/02:40pm 24.3 17.5 7.8 34 8.8 WNW 33 37 18 20 - - 0.0
21/02:30pm 25.4 18.2 7.5 32 9.6 WNW 35 46 19 25 - - 0.0
21/02:20pm 26.2 19.0 7.5 30 10.0 WNW 35 39 19 21 - - 0.0
21/02:10pm 25.5 18.8 7.3 31 9.7 WNW 32 37 17 20 - - 0.0
21/02:00pm 25.6 18.3 7.4 31 9.7 WNW 35 48 19 26 - - 0.0
21/01:50pm 26.3 19.4 7.1 29 10.2 WNW 33 41 18 22 - - 0.0
21/01:40pm 26.2 18.9 7.4 30 10.1 WNW 35 41 19 22 - - 0.0
21/01:30pm 26.9 19.4 7.8 29 10.3 WNW 37 44 20 24 - - 0.0
21/01:20pm 26.8 19.1 8.6 31 10.0 NW 39 46 21 25 - - 0.0
21/01:10pm 27.0 18.7 7.8 29 10.4 NW 41 48 22 26 - - 0.0
21/01:00pm 26.0 17.8 8.2 32 9.7 NW 41 44 22 24 - - 0.0
21/12:50pm 25.3 17.1 8.3 34 9.2 NNW 41 50 22 27 - - 0.0
21/12:40pm 25.1 15.5 8.0 33 9.2 NW 48 54 26 29 - - 0.0
21/12:30pm 25.5 16.7 8.2 33 9.4 NNW 44 52 24 28 - - 0.0
21/12:20pm 25.9 17.6 7.9 32 9.7 NNW 41 46 22 25 - - 0.0
21/12:10pm 25.8 17.1 7.5 31 9.8 N 43 52 23 28 - - 0.0
21/12:00pm 25.2 15.1 7.5 32 9.4 NNW 50 54 27 29 - - 0.0
21/11:50am 25.5 15.8 7.3 31 9.7 N 48 57 26 31 - - 0.0
21/11:40am 26.0 17.6 7.4 30 9.9 N 41 48 22 26 - - 0.0
21/11:30am 26.1 17.1 7.2 30 10.1 N 44 48 24 26 - - 0.0
21/11:20am 25.9 17.1 7.1 30 10.0 N 43 48 23 26 - - 0.0
21/11:10am 24.9 16.3 6.6 31 9.6 N 41 48 22 26 - - 0.0
21/11:00am 23.9 15.7 6.7 33 9.0 N 39 44 21 24 - - 0.0
21/10:50am 23.8 13.9 6.4 32 9.0 N 48 54 26 29 - - 0.0
21/10:40am 23.5 14.7 7.2 35 8.6 N 43 48 23 26 - - 0.0
21/10:30am 23.9 17.1 7.9 36 8.5 N 33 39 18 21 - - 0.0
21/10:20am 24.1 15.8 7.7 35 8.7 NNW 41 52 22 28 - - 0.0
21/10:10am 24.2 15.8 7.3 34 8.9 NNW 41 50 22 27 - - 0.0
21/10:00am 24.1 15.3 7.4 34 8.8 NNW 43 48 23 26 - - 0.0
21/09:50am 24.0 17.0 8.3 36 8.4 N 35 43 19 23 - - 0.0
21/09:40am 23.8 16.8 8.3 37 8.3 N 35 43 19 23 - - 0.0
21/09:30am 23.5 15.7 8.2 37 8.2 N 39 46 21 25 - - 0.0
21/09:20am 23.1 16.7 8.4 39 7.9 N 32 39 17 21 - - 0.0
21/09:10am 22.8 15.8 8.4 39 7.7 N 35 39 19 21 - - 0.0
21/09:00am 22.7 15.3 8.4 40 7.6 N 37 44 20 24 - - 0.0
21/08:50am 22.6 15.2 8.3 40 7.6 N 37 44 20 24 - - 0.0
21/08:40am 22.7 14.5 8.3 39 7.7 N 41 46 22 25 - - 0.0
21/08:30am 22.7 14.5 8.3 39 7.7 N 41 46 22 25 - - 0.0
21/08:20am 22.8 14.6 8.2 39 7.8 N 41 48 22 26 - - 0.0
21/08:10am 22.8 14.1 7.9 38 7.9 N 43 59 23 32 - - 0.0
21/08:00am 23.0 13.8 8.0 38 8.0 NNE 46 56 25 30 - - 0.0
21/07:50am 22.7 14.0 7.5 37 8.0 NNE 43 54 23 29 - - 0.0
21/07:40am 22.4 15.1 7.4 38 7.9 NNE 35 43 19 23 - - 0.0
21/07:30am 22.5 14.8 7.3 37 8.0 NNE 37 44 20 24 - - 0.0
21/07:20am 22.0 14.3 7.0 38 7.8 NNE 37 41 20 22 - - 0.0
21/07:10am 21.7 14.0 6.9 38 7.6 NNE 37 43 20 23 - - 0.0
21/07:00am 21.7 14.3 6.8 38 7.7 NNE 35 39 19 21 - - 0.0
21/06:50am 21.7 13.9 6.6 37 7.8 NNE 37 41 20 22 - - 0.0
21/06:40am 21.6 13.4 6.5 37 7.7 NNE 39 43 21 23 - - 0.0
21/06:30am 21.4 13.9 6.4 37 7.7 NNE 35 39 19 21 - - 0.0
21/06:20am 21.4 13.5 6.4 37 7.7 NNE 37 41 20 22 - - 0.0
21/06:10am 21.6 13.7 6.3 37 7.8 NNE 37 43 20 23 - - 0.0
21/06:00am 21.5 14.1 6.6 38 7.6 NNE 35 43 19 23 - - 0.0
21/05:50am 21.2 13.4 6.5 38 7.5 NNE 37 43 20 23 - - 0.0
21/05:40am 20.8 13.8 7.0 40 7.1 NNE 33 35 18 19 - - 0.0
21/05:30am 20.9 13.6 7.3 41 7.0 NNE 35 39 19 21 - - 0.0
21/05:20am 20.6 13.7 7.4 42 6.8 NE 33 44 18 24 - - 0.0
21/05:10am 20.3 14.1 7.9 44 6.5 NE 30 33 16 18 - - 0.0
21/05:00am 20.2 14.1 8.1 45 6.3 NE 30 35 16 19 - - 0.0
21/04:50am 20.1 14.0 8.3 46 6.2 NE 30 35 16 19 - - 0.0
21/04:40am 20.0 13.6 8.4 47 6.1 NE 32 35 17 19 - - 0.0
21/04:30am 20.0 13.6 8.7 48 6.0 NE 32 37 17 20 - - 0.0
21/04:20am 20.0 13.7 9.0 49 5.9 NE 32 39 17 21 - - 0.0
21/04:10am 19.8 13.9 8.9 49 5.8 NE 30 35 16 19 - - 0.0
21/04:00am 19.8 13.5 9.1 50 5.7 NE 32 33 17 18 - - 0.0
21/03:50am 19.8 13.9 9.1 50 5.7 NE 30 33 16 18 - - 0.0
21/03:40am 19.9 13.7 9.2 50 5.7 NE 32 35 17 19 - - 0.0
21/03:30am 19.9 14.0 9.1 49 5.8 NE 30 35 16 19 - - 0.0
21/03:20am 19.9 14.4 9.2 50 5.7 NE 28 33 15 18 - - 0.0
21/03:10am 20.0 14.1 9.2 49 5.8 NE 30 33 16 18 - - 0.0
21/03:00am 19.9 14.4 9.2 50 5.7 NE 28 32 15 17 - - 0.0
21/02:50am 19.8 14.3 9.0 49 5.7 NE 28 32 15 17 - - 0.0
21/02:40am 19.7 14.5 9.0 50 5.7 NE 26 28 14 15 - - 0.0
21/02:30am 19.6 14.4 8.9 50 5.7 NE 26 28 14 15 - - 0.0
21/02:20am 19.6 14.4 8.9 50 5.7 ENE 26 30 14 16 - - 0.0
21/02:10am 19.6 14.0 8.8 49 5.7 ENE 28 30 15 16 - - 0.0
21/02:00am 19.8 13.8 8.8 49 5.8 ENE 30 33 16 18 - - 0.0
21/01:50am 19.8 14.6 8.7 48 5.9 ENE 26 30 14 16 - - 0.0
21/01:40am 19.9 14.6 8.6 48 6.0 ENE 26 28 14 15 - - 0.0
21/01:30am 20.1 14.8 8.5 47 6.1 ENE 26 28 14 15 - - 0.0
21/01:20am 20.4 15.1 8.5 46 6.3 ENE 26 30 14 16 - - 0.0
21/01:10am 20.7 15.0 8.4 45 6.5 NE 28 32 15 17 - - 0.0
21/01:00am 20.8 15.1 8.3 44 6.6 NE 28 30 15 16 - - 0.0
21/12:50am 20.9 15.2 8.2 44 6.7 NE 28 32 15 17 - - 0.0
21/12:40am 21.0 15.2 8.0 43 6.8 NE 28 32 15 17 - - 0.0
21/12:30am 21.1 14.9 7.8 42 7.0 NE 30 37 16 20 - - 0.0
21/12:20am 21.3 14.7 7.7 41 7.1 ENE 32 35 17 19 - - 0.0
21/12:10am 21.4 15.1 7.5 40 7.2 NE 30 33 16 18 - - 0.0
21/12:00am 21.5 15.2 7.3 40 7.4 NE 30 33 16 18 - - 0.0
 
Date/Time
EST
Temp
°C
App
Temp
°C
Dew
Point
°C
Rel
Hum
%
Delta-T
°C
Wind Press
QNH
hPa
Press
MSL
hPa
Rain since
9am
mm
Dir  Spd
km/h
Gust
km/h
Spd
kts
Gust
kts
20/11:50pm 21.5 15.5 7.0 39 7.5 NE 28 32 15 17 - - 0.0
20/11:40pm 21.4 15.7 6.8 38 7.5 NE 26 30 14 16 - - 0.0
20/11:30pm 21.5 15.4 6.7 38 7.6 NE 28 33 15 18 - - 0.0
20/11:20pm 21.6 15.9 6.7 38 7.7 NE 26 30 14 16 - - 0.0
20/11:10pm 21.7 16.0 6.5 37 7.8 ENE 26 30 14 16 - - 0.0
20/11:00pm 21.8 16.0 6.2 36 8.0 NE 26 30 14 16 - - 0.0
20/10:50pm 21.5 16.4 5.9 36 7.9 NE 22 26 12 14 - - 0.0
20/10:40pm 21.2 16.5 5.9 37 7.7 ENE 20 24 11 13 - - 0.0
20/10:30pm 21.1 16.5 6.4 38 7.5 ENE 20 24 11 13 - - 0.0
20/10:20pm 21.2 16.6 6.5 38 7.5 ENE 20 24 11 13 - - 0.0
20/10:10pm 21.4 16.4 6.4 37 7.7 ENE 22 24 12 13 - - 0.0
20/10:00pm 21.3 16.6 6.2 37 7.7 ENE 20 22 11 12 - - 0.0
20/09:50pm 21.3 16.5 5.8 36 7.8 ENE 20 24 11 13 - - 0.0
20/09:40pm 21.3 17.0 5.4 35 8.0 ENE 17 19 9 10 - - 0.0
20/09:30pm 21.4 17.5 5.3 35 8.1 NE 15 19 8 10 - - 0.0
20/09:20pm 21.5 17.6 5.5 35 8.0 NE 15 17 8 9 - - 0.0
20/09:10pm 21.6 17.7 5.4 34 8.1 ENE 15 17 8 9 - - 0.0
20/09:00pm 21.5 18.0 5.6 35 8.0 NE 13 15 7 8 - - 0.0
20/08:50pm 21.8 18.8 6.1 36 8.0 ENE 11 13 6 7 - - 0.0
20/08:40pm 22.2 18.4 5.8 34 8.3 NE 15 17 8 9 - - 0.0
20/08:30pm 22.2 18.4 5.6 34 8.4 NE 15 15 8 8 - - 0.0
20/08:20pm 22.2 18.7 5.5 33 8.4 NE 13 15 7 8 - - 0.0
20/08:10pm 22.2 19.2 5.8 34 8.3 NE 11 13 6 7 - - 0.0
20/08:00pm 22.5 19.1 5.7 33 8.5 NE 13 15 7 8 - - 0.0
20/07:50pm 22.6 19.2 5.7 33 8.6 NE 13 15 7 8 - - 0.0
20/07:40pm 22.8 19.4 5.8 33 8.7 NE 13 17 7 9 - - 0.0
20/07:30pm 23.1 19.3 5.6 32 8.9 NE 15 17 8 9 - - 0.0
20/07:20pm 23.3 19.8 5.5 31 9.1 NE 13 15 7 8 - - 0.0
20/07:10pm 23.6 19.8 5.6 31 9.2 NE 15 17 8 9 - - 0.0
20/07:00pm 23.8 19.6 5.5 30 9.3 NE 17 19 9 10 - - 0.0
20/06:50pm 24.1 19.8 5.4 30 9.5 NE 17 20 9 11 - - 0.0
20/06:40pm 24.4 20.1 5.4 29 9.7 NE 17 20 9 11 - - 0.0
20/06:30pm 24.6 20.4 5.6 29 9.8 NE 17 20 9 11 - - 0.0
20/06:20pm 24.9 20.7 5.8 29 9.9 NE 17 20 9 11 - - 0.0
20/06:10pm 25.1 20.9 5.9 29 9.9 NE 17 20 9 11 - - 0.0
20/06:00pm 25.5 20.9 5.8 28 10.2 NE 19 20 10 11 - - 0.0
20/05:50pm 25.9 20.8 5.8 27 10.4 NE 22 24 12 13 - - 0.0
20/05:40pm 26.1 21.5 6.3 28 10.4 NE 20 24 11 13 - - 0.0
20/05:30pm 26.2 21.7 6.8 29 10.3 NE 20 24 11 13 - - 0.0
20/05:20pm 26.2 20.9 6.8 29 10.3 NE 24 30 13 16 - - 0.0
20/05:10pm 26.2 20.9 6.9 29 10.2 NE 24 28 13 15 - - 0.0
20/05:00pm 26.4 20.8 7.0 29 10.3 NE 26 30 14 16 - - 0.0
20/04:50pm 26.7 21.1 7.0 28 10.5 NE 26 30 14 16 - - 0.0
20/04:40pm 26.9 21.2 6.6 27 10.8 NNE 26 32 14 17 - - 0.0
20/04:30pm 27.1 21.3 6.4 26 10.9 NE 26 30 14 16 - - 0.0
20/04:20pm 27.5 20.9 6.2 25 11.3 NE 30 35 16 19 - - 0.0
20/04:10pm 27.7 21.5 6.2 25 11.4 NE 28 32 15 17 - - 0.0
20/04:00pm 27.8 21.3 6.4 25 11.4 NE 30 35 16 19 - - 0.0
20/03:50pm 27.9 21.4 6.5 25 11.4 NNE 30 37 16 20 - - 0.0
20/03:40pm 28.2 22.0 6.3 25 11.6 NE 28 30 15 16 - - 0.0
20/03:30pm 28.1 21.3 6.7 25 11.4 NNE 32 37 17 20 - - 0.0

Other formats

Comma delimited format used in spreadsheet applications
http://www.bom.gov.au/fwo/IDN60801/IDN60801.99792.axf

JavaScript Object Notation format (JSON) in row-major order
http://www.bom.gov.au/fwo/IDN60801/IDN60801.99792.json

Data quality

Most of these data are generated automatically and are frequently updated. Quality checks on data are not normally performed. It is possible for incorrect values to appear. Refer to information at About Latest Weather Observations and please check the disclaimer before using these data.